Time;durP1;ratioP1;P1;durP2;ratioP2;P2;SDS_P1;SDS_P2;PMS_P1;PMS_P2;Temp;Humidity;BMP_temperature;BMP_pressure;BME280_temperature;BME280_humidity;BME280_pressure;Samples;Min_cycle;Max_cycle;Signal;HPM_P1;HPM_P2
2023/04/19 00:00:45;;;;;;;4.93;2.63;;;20.50;56.40;;;;;;5055151;28;20036;-73
2023/04/19 00:03:11;;;;;;;6.75;3.00;;;20.40;56.10;;;;;;5055005;28;20021;-72
2023/04/19 00:05:40;;;;;;;9.32;3.05;;;20.50;56.00;;;;;;5054871;28;20060;-72
2023/04/19 00:08:06;;;;;;;6.72;2.78;;;20.40;56.00;;;;;;5054973;28;20052;-72
2023/04/19 00:10:34;;;;;;;6.80;2.90;;;20.50;56.20;;;;;;5054957;28;20032;-72
2023/04/19 00:13:00;;;;;;;8.98;2.88;;;20.40;56.20;;;;;;5036981;28;20065;-72
2023/04/19 00:15:26;;;;;;;5.43;2.50;;;20.40;56.50;;;;;;5054849;28;20025;-72
2023/04/19 00:17:52;;;;;;;7.32;2.70;;;20.40;56.50;;;;;;5055230;28;20487;-72
2023/04/19 00:20:19;;;;;;;6.38;2.80;;;20.40;56.60;;;;;;5054603;28;20029;-73
2023/04/19 00:22:45;;;;;;;7.68;2.70;;;20.40;56.80;;;;;;5053637;28;20037;-72
2023/04/19 00:25:11;;;;;;;11.32;2.70;;;20.40;57.60;;;;;;5054296;28;20051;-72
2023/04/19 00:27:36;;;;;;;12.18;2.50;;;20.40;58.70;;;;;;5019568;28;20044;-72
2023/04/19 00:30:02;;;;;;;10.13;2.78;;;20.40;57.50;;;;;;5025952;28;20485;-73
2023/04/19 00:32:31;;;;;;;7.13;2.47;;;20.40;57.50;;;;;;5042206;28;20394;-73
2023/04/19 00:34:56;;;;;;;7.28;3.10;;;20.40;56.60;;;;;;5025265;28;20040;-72
2023/04/19 00:37:22;;;;;;;7.78;2.30;;;20.40;57.00;;;;;;5024982;28;20021;-72
2023/04/19 00:39:48;;;;;;;9.88;2.85;;;20.40;57.10;;;;;;5026129;28;20433;-73
2023/04/19 00:42:14;;;;;;;7.32;2.70;;;20.40;56.90;;;;;;5026515;28;20022;-73
2023/04/19 00:44:39;;;;;;;5.72;2.60;;;20.40;56.70;;;;;;5042593;28;20029;-72
2023/04/19 00:47:06;;;;;;;9.43;2.58;;;20.40;56.80;;;;;;5027087;28;20562;-72
2023/04/19 00:49:31;;;;;;;5.38;2.42;;;20.40;56.70;;;;;;5025948;28;20384;-72
2023/04/19 00:51:57;;;;;;;7.18;2.90;;;20.40;56.80;;;;;;5041941;28;20040;-72
2023/04/19 00:54:23;;;;;;;7.45;2.50;;;20.40;56.50;;;;;;5044190;28;20036;-72
2023/04/19 00:56:50;;;;;;;9.73;2.58;;;20.40;56.60;;;;;;5025651;28;20130;-73
2023/04/19 00:59:17;;;;;;;15.43;2.58;;;20.40;56.50;;;;;;5025493;28;20104;-72
2023/04/19 01:01:43;;;;;;;6.05;2.50;;;20.40;56.60;;;;;;5010715;28;20024;-73
2023/04/19 01:04:08;;;;;;;8.88;2.38;;;20.40;56.40;;;;;;5042763;28;20032;-73
2023/04/19 01:06:35;;;;;;;7.68;2.58;;;20.40;56.60;;;;;;5025576;28;20403;-72
2023/04/19 01:09:01;;;;;;;4.57;2.17;;;20.40;56.30;;;;;;5044447;28;20556;-73
2023/04/19 01:11:28;;;;;;;6.38;2.78;;;20.40;56.60;;;;;;5041549;28;20037;-73
2023/04/19 01:13:57;;;;;;;5.07;2.50;;;20.40;57.10;;;;;;5041700;28;20379;-72
2023/04/19 01:16:27;;;;;;;7.72;2.55;;;20.40;57.30;;;;;;5043113;28;20505;-73
2023/04/19 01:18:53;;;;;;;5.80;2.63;;;20.40;56.60;;;;;;5025728;28;20056;-73
2023/04/19 01:21:21;;;;;;;6.90;2.33;;;20.40;57.00;;;;;;5041083;28;20029;-73
2023/04/19 01:23:47;;;;;;;4.53;2.58;;;20.30;56.80;;;;;;5038571;28;20021;-72
2023/04/19 01:26:15;;;;;;;6.65;2.22;;;20.40;57.30;;;;;;5042954;28;20052;-73
2023/04/19 01:28:41;;;;;;;6.63;2.83;;;20.40;57.20;;;;;;5042910;28;20509;-72
2023/04/19 01:31:08;;;;;;;5.07;2.40;;;20.40;57.00;;;;;;5025048;28;20032;-72
2023/04/19 01:33:35;;;;;;;5.53;2.40;;;20.40;57.10;;;;;;5042527;28;20092;-72
2023/04/19 01:36:01;;;;;;;5.13;2.47;;;20.30;57.00;;;;;;5009674;28;20024;-72
2023/04/19 01:38:29;;;;;;;7.78;2.85;;;20.30;56.80;;;;;;5041049;28;20116;-73
2023/04/19 01:40:58;;;;;;;4.28;2.20;;;20.30;57.00;;;;;;5041502;28;20036;-73
2023/04/19 01:43:24;;;;;;;7.47;2.55;;;20.30;56.80;;;;;;5029506;28;20024;-73
2023/04/19 01:45:50;;;;;;;4.20;2.30;;;20.30;56.90;;;;;;5035368;28;20033;-73
2023/04/19 01:48:18;;;;;;;4.18;2.40;;;20.30;57.00;;;;;;5024877;28;20033;-72
2023/04/19 01:50:44;;;;;;;6.68;2.42;;;20.30;57.10;;;;;;5009223;28;20111;-72
2023/04/19 01:53:09;;;;;;;6.13;2.45;;;20.30;56.70;;;;;;5023751;28;20087;-73
2023/04/19 01:55:35;;;;;;;4.00;2.13;;;20.30;57.00;;;;;;5024923;28;20071;-72
2023/04/19 01:58:01;;;;;;;6.13;2.15;;;20.30;57.00;;;;;;5025208;28;20022;-72
2023/04/19 02:00:27;;;;;;;4.45;2.60;;;20.30;56.60;;;;;;5045807;28;20052;-72
2023/04/19 02:02:53;;;;;;;5.45;2.20;;;20.40;56.60;;;;;;5052998;28;20112;-72
2023/04/19 02:05:19;;;;;;;5.10;2.63;;;20.30;57.20;;;;;;5034643;28;20044;-72
2023/04/19 02:07:45;;;;;;;10.68;2.45;;;20.30;56.70;;;;;;5051667;28;20087;-72
2023/04/19 02:10:11;;;;;;;5.22;2.40;;;20.30;57.10;;;;;;5034888;28;20394;-72
2023/04/19 02:12:37;;;;;;;4.75;2.50;;;20.30;57.00;;;;;;5034874;28;20036;-72
2023/04/19 02:15:03;;;;;;;8.13;2.78;;;20.30;56.90;;;;;;5018028;28;20029;-73
2023/04/19 02:17:31;;;;;;;5.78;2.28;;;20.30;56.70;;;;;;5052560;28;20025;-72
2023/04/19 02:19:58;;;;;;;5.95;2.45;;;20.30;57.00;;;;;;5018530;28;20032;-73
2023/04/19 02:22:25;;;;;;;6.53;2.50;;;20.30;57.00;;;;;;5018110;28;20111;-72
2023/04/19 02:24:51;;;;;;;4.80;2.60;;;20.30;57.10;;;;;;5052519;28;20461;-73
2023/04/19 02:27:17;;;;;;;5.35;2.58;;;20.30;57.20;;;;;;5034742;28;20029;-72
2023/04/19 02:29:44;;;;;;;6.57;2.58;;;20.30;57.20;;;;;;5034526;28;20089;-72
2023/04/19 02:32:13;;;;;;;5.85;2.50;;;20.30;57.20;;;;;;5034438;28;20125;-72
2023/04/19 02:34:38;;;;;;;4.25;2.17;;;20.30;57.00;;;;;;5034116;28;20509;-72
2023/04/19 02:37:04;;;;;;;5.13;2.40;;;20.30;57.20;;;;;;5034483;28;20025;-73
2023/04/19 02:39:30;;;;;;;7.50;2.13;;;20.20;57.00;;;;;;5034423;28;20048;-72
2023/04/19 02:41:56;;;;;;;7.88;2.40;;;20.30;57.10;;;;;;5017943;28;20386;-73
2023/04/19 02:44:22;;;;;;;6.63;2.35;;;20.30;57.80;;;;;;5017818;28;20057;-72
2023/04/19 02:46:52;;;;;;;5.60;1.95;;;20.20;57.10;;;;;;5034057;28;20028;-73
2023/04/19 02:49:19;;;;;;;6.20;2.00;;;20.30;57.30;;;;;;5034290;28;20021;-72
2023/04/19 02:51:45;;;;;;;7.03;2.65;;;20.20;57.40;;;;;;5050616;28;20744;-72
2023/04/19 02:54:13;;;;;;;4.32;2.20;;;20.30;57.30;;;;;;5033847;28;20120;-72
2023/04/19 02:56:40;;;;;;;6.15;2.58;;;20.30;57.30;;;;;;5034235;28;20039;-72
2023/04/19 02:59:05;;;;;;;6.18;2.20;;;20.30;57.00;;;;;;5034210;28;20033;-72
2023/04/19 03:01:32;;;;;;;6.05;2.60;;;20.30;57.10;;;;;;5033816;28;20036;-72
2023/04/19 03:04:01;;;;;;;4.90;2.47;;;20.30;56.90;;;;;;5033802;28;20100;-72
2023/04/19 03:06:27;;;;;;;5.97;2.42;;;20.30;57.10;;;;;;5033880;28;20458;-72
2023/04/19 03:08:53;;;;;;;4.40;2.28;;;20.20;57.10;;;;;;5033890;28;20090;-72
2023/04/19 03:11:18;;;;;;;6.60;2.30;;;20.20;57.10;;;;;;5033720;28;20033;-72
2023/04/19 03:13:45;;;;;;;4.07;2.30;;;20.20;56.90;;;;;;5017200;28;20037;-72
2023/04/19 03:16:12;;;;;;;5.40;2.58;;;20.20;57.00;;;;;;5033571;28;20509;-73
2023/04/19 03:18:39;;;;;;;3.92;2.00;;;20.20;57.20;;;;;;5017440;28;20025;-72
2023/04/19 03:21:08;;;;;;;6.63;2.28;;;20.20;57.30;;;;;;5033418;28;20569;-73
2023/04/19 03:23:44;;;;;;;5.60;2.38;;;20.20;57.40;;;;;;5050009;28;20489;-72
2023/04/19 03:26:10;;;;;;;4.32;2.17;;;20.20;57.40;;;;;;5050389;28;20056;-72
2023/04/19 03:28:40;;;;;;;6.40;2.42;;;20.20;57.70;;;;;;5033458;28;20055;-72
2023/04/19 03:31:18;;;;;;;4.55;2.65;;;20.20;57.60;;;;;;5051205;28;20475;-72
2023/04/19 03:33:48;;;;;;;4.82;2.45;;;20.20;57.60;;;;;;5000504;28;20052;-73
2023/04/19 03:36:14;;;;;;;7.35;2.20;;;20.20;57.60;;;;;;5033373;28;20031;-72
2023/04/19 03:38:43;;;;;;;6.95;2.70;;;20.20;57.60;;;;;;5050038;28;20115;-72
2023/04/19 03:41:25;;;;;;;4.47;2.10;;;20.20;57.50;;;;;;5033268;28;20487;-73
2023/04/19 03:44:07;;;;;;;5.80;2.40;;;20.20;57.80;;;;;;5049744;28;20028;-73
2023/04/19 03:46:33;;;;;;;3.65;2.20;;;20.20;57.50;;;;;;5017044;28;20501;-73
2023/04/19 03:48:59;;;;;;;2.53;1.90;;;20.20;57.70;;;;;;5017085;28;20482;-73
2023/04/19 03:51:26;;;;;;;3.92;2.17;;;20.20;57.60;;;;;;5033349;28;20029;-73
2023/04/19 03:53:52;;;;;;;5.38;2.80;;;20.20;57.60;;;;;;5033098;28;20102;-73
2023/04/19 03:56:18;;;;;;;6.18;2.30;;;20.20;57.70;;;;;;5016681;28;20029;-73
2023/04/19 03:58:44;;;;;;;4.53;2.38;;;20.20;57.80;;;;;;5033367;28;20028;-73
2023/04/19 04:01:18;;;;;;;4.55;2.25;;;20.20;58.00;;;;;;5033320;28;20032;-72
2023/04/19 04:03:44;;;;;;;5.88;2.10;;;20.20;57.70;;;;;;5049594;28;20047;-73
2023/04/19 04:06:10;;;;;;;5.43;2.20;;;20.20;57.70;;;;;;5049682;28;20486;-72
2023/04/19 04:08:37;;;;;;;7.40;2.70;;;20.20;57.60;;;;;;5016615;28;20397;-73
2023/04/19 04:11:03;;;;;;;4.97;2.33;;;20.20;57.70;;;;;;5033168;28;20045;-73
2023/04/19 04:13:29;;;;;;;5.20;2.25;;;20.20;57.40;;;;;;5032887;28;20550;-73
2023/04/19 04:16:10;;;;;;;6.68;2.40;;;20.20;57.70;;;;;;5033103;28;20036;-73
2023/04/19 04:18:36;;;;;;;4.22;2.03;;;20.20;57.90;;;;;;5000579;28;20444;-72
2023/04/19 04:21:06;;;;;;;4.50;2.25;;;20.20;57.70;;;;;;5016485;28;20487;-73
2023/04/19 04:23:34;;;;;;;4.20;2.38;;;20.20;57.70;;;;;;5032827;28;20025;-73
2023/04/19 04:26:04;;;;;;;4.90;2.80;;;20.20;57.80;;;;;;5032931;28;20494;-73
2023/04/19 04:28:41;;;;;;;3.83;2.30;;;20.20;58.60;;;;;;5049688;28;20431;-73
2023/04/19 04:31:08;;;;;;;6.32;2.20;;;20.20;57.80;;;;;;5016831;28;20072;-73
2023/04/19 04:33:34;;;;;;;6.78;2.25;;;20.20;57.90;;;;;;5033107;28;20047;-74
2023/04/19 04:36:01;;;;;;;6.40;2.53;;;20.20;57.80;;;;;;5049550;28;20025;-72
2023/04/19 04:38:31;;;;;;;3.17;2.20;;;20.20;57.60;;;;;;5049685;28;20036;-73
2023/04/19 04:40:58;;;;;;;5.03;2.60;;;20.20;57.60;;;;;;5016450;28;20410;-73
2023/04/19 04:43:24;;;;;;;5.30;2.50;;;20.20;57.70;;;;;;5032459;28;20025;-73
2023/04/19 04:45:51;;;;;;;4.85;2.40;;;20.20;57.60;;;;;;5052136;28;20028;-73
2023/04/19 04:48:17;;;;;;;5.25;2.50;;;20.20;57.50;;;;;;5020217;28;20029;-73
2023/04/19 04:50:43;;;;;;;7.10;2.83;;;20.20;57.50;;;;;;5036372;28;20033;-73
2023/04/19 04:53:11;;;;;;;5.97;2.40;;;20.20;57.40;;;;;;5020162;28;20135;-72
2023/04/19 04:55:38;;;;;;;6.17;2.43;;;20.20;57.30;;;;;;5036168;28;20032;-72
2023/04/19 04:58:04;;;;;;;4.35;2.28;;;20.20;57.30;;;;;;5036212;28;20029;-72
2023/04/19 05:00:53;;;;;;;4.43;2.67;;;20.20;57.10;;;;;;5053789;28;20114;-72
2023/04/19 05:03:19;;;;;;;4.03;2.50;;;20.20;57.20;;;;;;5052582;28;20029;-72
2023/04/19 05:05:51;;;;;;;3.97;2.40;;;20.30;57.20;;;;;;5036218;28;20029;-73
2023/04/19 05:08:17;;;;;;;4.93;2.40;;;20.20;57.00;;;;;;5036258;28;20113;-72
2023/04/19 05:10:44;;;;;;;5.18;2.50;;;20.30;56.90;;;;;;5036061;28;20533;-72
2023/04/19 05:13:11;;;;;;;5.90;2.20;;;20.30;57.00;;;;;;5019590;28;20104;-72
2023/04/19 05:15:38;;;;;;;4.40;2.25;;;20.30;56.90;;;;;;5036013;28;20034;-73
2023/04/19 05:18:05;;;;;;;5.15;2.53;;;20.30;56.80;;;;;;5053872;28;20056;-72
2023/04/19 05:20:34;;;;;;;5.45;2.58;;;20.30;56.70;;;;;;5053847;28;20025;-74
2023/04/19 05:23:09;;;;;;;6.07;2.65;;;20.30;56.70;;;;;;4997540;28;20049;-70
2023/04/19 05:25:35;;;;;;;5.18;2.45;;;20.30;56.60;;;;;;4999273;28;20030;-70
2023/04/19 05:28:02;;;;;;;3.83;2.05;;;20.30;56.60;;;;;;4999647;28;20442;-71
2023/04/19 05:30:33;;;;;;;5.82;2.50;;;20.30;56.60;;;;;;5014590;28;20096;-70
2023/04/19 05:33:00;;;;;;;3.97;2.20;;;20.30;56.60;;;;;;4996065;28;20033;-70
2023/04/19 05:35:26;;;;;;;4.70;2.40;;;20.30;56.40;;;;;;4995870;28;20073;-71
2023/04/19 05:37:52;;;;;;;5.68;2.28;;;20.30;56.40;;;;;;4996214;28;20108;-70
2023/04/19 05:40:18;;;;;;;4.90;2.45;;;20.30;56.60;;;;;;4996210;28;20044;-70
2023/04/19 05:42:44;;;;;;;6.00;2.40;;;20.30;56.30;;;;;;4995892;28;20030;-70
2023/04/19 05:45:10;;;;;;;5.32;2.35;;;20.30;56.40;;;;;;4979701;28;20065;-71
2023/04/19 05:47:36;;;;;;;4.03;2.40;;;20.30;56.30;;;;;;4995864;28;20055;-71
2023/04/19 05:50:31;;;;;;;6.88;2.40;;;20.30;56.40;;;;;;4979176;28;20038;-71
2023/04/19 05:53:19;;;;;;;4.72;2.22;;;20.30;56.40;;;;;;4995702;28;20110;-71
2023/04/19 05:55:48;;;;;;;4.53;2.13;;;20.30;56.40;;;;;;4995383;28;20033;-70
2023/04/19 05:58:14;;;;;;;4.10;2.30;;;20.30;56.30;;;;;;4979447;28;20244;-70
2023/04/19 06:00:40;;;;;;;4.50;2.20;;;20.30;56.40;;;;;;5013277;28;20049;-71
2023/04/19 06:03:10;;;;;;;5.45;2.30;;;20.30;56.20;;;;;;4995959;28;20029;-71
2023/04/19 06:05:36;;;;;;;3.97;2.42;;;20.30;56.40;;;;;;5013085;28;20030;-70
2023/04/19 06:08:03;;;;;;;4.30;2.30;;;20.30;56.60;;;;;;5013092;28;20088;-71
2023/04/19 06:10:29;;;;;;;3.65;2.17;;;20.30;56.30;;;;;;4995499;28;20100;-71
2023/04/19 06:12:55;;;;;;;3.97;2.03;;;20.40;56.40;;;;;;5012912;28;20125;-70
2023/04/19 06:15:21;;;;;;;5.18;2.50;;;20.40;56.20;;;;;;4995196;28;20459;-71
2023/04/19 06:17:47;;;;;;;3.25;2.10;;;20.40;56.30;;;;;;4995314;28;20061;-71
2023/04/19 06:20:13;;;;;;;4.10;2.20;;;20.40;56.30;;;;;;5013028;28;20049;-70
2023/04/19 06:22:44;;;;;;;6.47;2.75;;;20.40;56.70;;;;;;4995141;28;20030;-70
2023/04/19 06:25:10;;;;;;;3.85;2.35;;;20.40;56.10;;;;;;4994875;28;20111;-70
2023/04/19 06:27:36;;;;;;;5.38;2.25;;;20.30;56.20;;;;;;5012574;28;20026;-70
2023/04/19 06:30:02;;;;;;;5.53;2.28;;;20.40;56.20;;;;;;5012730;28;20028;-71
2023/04/19 06:32:28;;;;;;;6.90;1.98;;;20.40;56.40;;;;;;5012588;28;20049;-71
2023/04/19 06:34:54;;;;;;;4.13;1.90;;;20.40;56.20;;;;;;4994664;28;20511;-71
2023/04/19 06:37:20;;;;;;;6.53;2.22;;;20.40;56.40;;;;;;5012532;28;20026;-71
2023/04/19 06:39:45;;;;;;;4.65;2.45;;;20.40;56.00;;;;;;5012485;28;20064;-71
2023/04/19 06:42:11;;;;;;;5.68;2.00;;;20.40;56.00;;;;;;5012550;28;20037;-70
2023/04/19 06:44:37;;;;;;;4.05;2.47;;;20.40;56.50;;;;;;4994673;28;20092;-70
2023/04/19 06:47:03;;;;;;;4.75;2.10;;;20.40;57.60;;;;;;5012453;28;20029;-70
2023/04/19 06:49:29;;;;;;;7.82;2.20;;;20.40;56.80;;;;;;5012410;28;20057;-70
2023/04/19 06:51:54;;;;;;;4.38;2.17;;;20.40;56.90;;;;;;4994595;28;20171;-70
2023/04/19 06:54:21;;;;;;;5.20;2.45;;;20.40;58.70;;;;;;5011854;28;20029;-70
2023/04/19 06:56:48;;;;;;;6.15;2.13;;;20.50;57.60;;;;;;5012199;28;20025;-70
2023/04/19 06:59:16;;;;;;;4.00;2.05;;;20.40;58.90;;;;;;4994668;28;20029;-70
2023/04/19 07:01:43;;;;;;;4.28;2.20;;;20.50;59.40;;;;;;5011787;28;20460;-70
2023/04/19 07:04:09;;;;;;;4.40;2.05;;;20.40;59.40;;;;;;5011788;28;20018;-70
2023/04/19 07:06:35;;;;;;;4.75;1.98;;;20.50;59.40;;;;;;4978319;28;20400;-71
2023/04/19 07:09:02;;;;;;;4.07;2.13;;;20.50;59.60;;;;;;5010998;28;20180;-70
2023/04/19 07:11:28;;;;;;;4.88;2.00;;;20.50;59.60;;;;;;5012052;28;20065;-71
2023/04/19 07:13:55;;;;;;;4.30;2.00;;;20.50;59.80;;;;;;5011861;28;20037;-71
2023/04/19 07:16:20;;;;;;;3.65;1.80;;;20.50;59.90;;;;;;4978334;28;20038;-71
2023/04/19 07:18:46;;;;;;;4.70;2.42;;;20.50;59.80;;;;;;5011868;28;20048;-71
2023/04/19 07:21:13;;;;;;;3.40;1.98;;;20.60;59.80;;;;;;4994171;28;20042;-71
2023/04/19 07:23:39;;;;;;;4.38;2.13;;;20.60;59.90;;;;;;5011937;28;20120;-71
2023/04/19 07:26:05;;;;;;;4.45;2.20;;;20.60;59.70;;;;;;5011829;28;20503;-72
2023/04/19 07:28:31;;;;;;;4.20;1.98;;;20.60;59.70;;;;;;5011846;28;20030;-71
2023/04/19 07:30:56;;;;;;;4.40;1.73;;;20.60;59.70;;;;;;4994128;28;20392;-71
2023/04/19 07:33:26;;;;;;;4.13;1.90;;;20.60;59.80;;;;;;4993940;28;20076;-71
2023/04/19 07:35:52;;;;;;;;;;;20.60;59.70;;;;;;4994561;28;20034;-71
2023/04/19 07:38:18;;;;;;;3.90;2.00;;;20.60;59.60;;;;;;4993955;28;20326;-72
2023/04/19 07:40:47;;;;;;;3.42;1.90;;;20.60;59.50;;;;;;5011597;28;20092;-71
2023/04/19 07:43:13;;;;;;;3.17;2.05;;;20.60;59.60;;;;;;5011546;28;20476;-71
2023/04/19 07:45:39;;;;;;;5.88;2.08;;;20.60;59.60;;;;;;5011481;28;20026;-71
2023/04/19 07:48:05;;;;;;;4.15;1.98;;;20.60;59.60;;;;;;5011594;28;20026;-71
2023/04/19 07:50:31;;;;;;;4.95;2.47;;;20.60;59.70;;;;;;5011380;28;20033;-71
2023/04/19 07:52:56;;;;;;;6.10;2.13;;;20.60;59.40;;;;;;5011793;28;20030;-71
2023/04/19 07:55:22;;;;;;;4.88;2.05;;;20.60;59.50;;;;;;5011146;28;20060;-71
2023/04/19 07:57:49;;;;;;;6.20;1.90;;;20.60;59.50;;;;;;5011540;28;20088;-71
2023/04/19 08:00:16;;;;;;;3.72;2.08;;;20.60;59.50;;;;;;5011469;28;20033;-71
2023/04/19 08:02:44;;;;;;;5.40;2.40;;;20.60;59.50;;;;;;5011531;28;20049;-71
2023/04/19 08:05:10;;;;;;;2.50;1.98;;;20.60;60.10;;;;;;5011125;28;20033;-72
2023/04/19 08:07:36;;;;;;;4.15;1.95;;;20.70;59.50;;;;;;4993873;28;20030;-71
2023/04/19 08:10:01;;;;;;;5.22;2.00;;;20.60;59.50;;;;;;5011308;28;20372;-72
2023/04/19 08:12:27;;;;;;;6.07;1.98;;;20.60;59.50;;;;;;4993797;28;20399;-72
2023/04/19 08:14:53;;;;;;;4.20;2.20;;;20.60;59.50;;;;;;5010966;28;20108;-71
2023/04/19 08:17:20;;;;;;;5.70;1.90;;;20.70;59.60;;;;;;5011251;28;20022;-71
2023/04/19 08:19:48;;;;;;;6.35;2.28;;;20.70;59.60;;;;;;5012488;28;20088;-71
2023/04/19 08:22:16;;;;;;;6.32;2.05;;;20.70;59.50;;;;;;4997461;28;20117;-71
2023/04/19 08:24:42;;;;;;;5.18;2.08;;;20.70;59.50;;;;;;4997145;28;20034;-73
2023/04/19 08:27:09;;;;;;;4.28;2.05;;;20.70;59.60;;;;;;5014725;28;20085;-72
2023/04/19 08:29:35;;;;;;;5.30;1.98;;;20.70;59.60;;;;;;5014937;28;20034;-72
2023/04/19 08:32:00;;;;;;;5.95;1.92;;;20.70;59.30;;;;;;5014965;28;20033;-72
2023/04/19 08:34:27;;;;;;;6.00;1.90;;;20.70;59.50;;;;;;4996933;28;20034;-72
2023/04/19 08:36:53;;;;;;;5.30;2.28;;;20.70;59.50;;;;;;5014881;28;20088;-72
2023/04/19 08:39:18;;;;;;;5.32;2.10;;;20.70;59.50;;;;;;5014743;28;20022;-72
2023/04/19 08:41:45;;;;;;;6.80;1.98;;;20.70;60.10;;;;;;5014996;28;20033;-72
2023/04/19 08:44:14;;;;;;;4.03;2.08;;;20.70;60.40;;;;;;5014529;28;20032;-72
2023/04/19 08:46:42;;;;;;;4.65;2.30;;;20.70;59.70;;;;;;5014672;28;20088;-71
2023/04/19 08:49:09;;;;;;;4.45;1.85;;;20.70;59.60;;;;;;5014729;28;20089;-71
2023/04/19 08:51:37;;;;;;;4.32;2.00;;;20.70;59.60;;;;;;5014735;28;20096;-71
2023/04/19 08:54:04;;;;;;;5.63;2.40;;;20.70;59.60;;;;;;5014120;28;20058;-71
2023/04/19 08:56:30;;;;;;;4.35;2.05;;;20.70;59.40;;;;;;5014645;28;20084;-72
2023/04/19 08:58:55;;;;;;;5.78;1.95;;;20.70;59.50;;;;;;5014380;28;20022;-72
2023/04/19 09:01:24;;;;;;;3.10;1.83;;;20.70;59.30;;;;;;5014268;28;20121;-72
2023/04/19 09:03:49;;;;;;;6.75;2.00;;;20.60;59.40;;;;;;4996557;28;20034;-71
2023/04/19 09:06:15;;;;;;;5.85;1.88;;;20.60;59.40;;;;;;5014332;28;20080;-72
2023/04/19 09:08:41;;;;;;;6.07;1.90;;;20.60;59.40;;;;;;5014477;28;20543;-72
2023/04/19 09:11:08;;;;;;;7.85;2.03;;;20.60;59.40;;;;;;4996837;28;20041;-71
2023/04/19 09:13:39;;;;;;;4.10;2.20;;;20.60;59.40;;;;;;4996333;28;20025;-71
2023/04/19 09:16:06;;;;;;;3.85;2.17;;;20.60;59.30;;;;;;5014119;28;20084;-71
2023/04/19 09:18:32;;;;;;;5.53;2.70;;;20.60;59.60;;;;;;5014274;28;20089;-71
2023/04/19 09:20:59;;;;;;;6.78;2.33;;;20.60;59.30;;;;;;4980131;28;20026;-72
2023/04/19 09:23:27;;;;;;;6.15;2.13;;;20.70;59.50;;;;;;5013952;28;20487;-71
2023/04/19 09:26:01;;;;;;;4.78;2.05;;;20.70;59.50;;;;;;5013854;28;20112;-72
2023/04/19 09:28:28;;;;;;;4.88;2.10;;;20.70;59.40;;;;;;5013888;28;20053;-71
2023/04/19 09:30:57;;;;;;;5.43;2.00;;;20.70;59.50;;;;;;5012805;28;20121;-71
2023/04/19 09:33:33;;;;;;;7.38;2.08;;;20.70;59.40;;;;;;5013570;28;20030;-71
2023/04/19 09:36:00;;;;;;;4.75;2.17;;;20.70;59.40;;;;;;4980037;28;20045;-71
2023/04/19 09:38:26;;;;;;;4.40;2.10;;;20.70;59.80;;;;;;5013765;28;20026;-71
2023/04/19 09:41:05;;;;;;;4.75;2.00;;;20.70;59.20;;;;;;5013541;28;20468;-71
2023/04/19 09:43:31;;;;;;;5.10;2.20;;;20.70;59.10;;;;;;5013415;28;20030;-71
2023/04/19 09:45:57;;;;;;;3.38;1.95;;;20.70;59.10;;;;;;5013614;28;20033;-71
2023/04/19 09:48:22;;;;;;;11.10;2.42;;;20.70;59.20;;;;;;4996126;28;20160;-74
2023/04/19 09:50:55;;;;;;;7.68;2.08;;;20.70;58.10;;;;;;5013379;28;20037;-73
2023/04/19 09:53:22;;;;;;;10.90;2.95;;;20.60;57.40;;;;;;5008441;28;20041;-74
2023/04/19 09:55:48;;;;;;;14.13;2.88;;;20.60;53.90;;;;;;4977808;28;20422;-74
2023/04/19 09:58:19;;;;;;;9.07;2.47;;;20.50;53.10;;;;;;5011705;28;20034;-75
2023/04/19 10:00:49;;;;;;;6.18;2.78;;;20.50;50.00;;;;;;5010652;28;20399;-75
2023/04/19 10:03:16;;;;;;;9.23;3.13;;;20.40;51.80;;;;;;4993309;28;20037;-74
2023/04/19 10:05:48;;;;;;;11.43;2.80;;;20.40;49.20;;;;;;5007886;28;20029;-71
2023/04/19 10:08:15;;;;;;;12.32;3.28;;;20.40;50.50;;;;;;5002812;28;20038;-70
2023/04/19 10:10:45;;;;;;;9.13;2.70;;;20.40;48.40;;;;;;4986805;28;20403;-70
2023/04/19 10:13:12;;;;;;;10.25;3.22;;;20.40;50.10;;;;;;5007223;28;20048;-71
2023/04/19 10:15:41;;;;;;;8.27;2.90;;;20.50;49.50;;;;;;5006597;28;20033;-70
2023/04/19 10:18:08;;;;;;;11.65;3.03;;;20.50;49.30;;;;;;4970253;28;20061;-70
2023/04/19 10:20:50;;;;;;;13.02;2.80;;;20.60;49.90;;;;;;5007785;28;20034;-71
2023/04/19 10:23:21;;;;;;;9.60;2.45;;;20.60;50.20;;;;;;4990429;28;20512;-70
2023/04/19 10:25:56;;;;;;;9.95;2.40;;;20.60;50.30;;;;;;4971298;28;20117;-70
2023/04/19 10:28:22;;;;;;;6.13;2.47;;;20.60;50.70;;;;;;4989176;28;20037;-72
2023/04/19 10:31:02;;;;;;;5.60;2.72;;;20.70;50.80;;;;;;5007550;28;20029;-72
2023/04/19 10:33:30;;;;;;;6.70;2.70;;;20.70;51.10;;;;;;5006871;28;20052;-71
2023/04/19 10:36:00;;;;;;;9.35;2.38;;;20.70;51.30;;;;;;5003569;28;20030;-70
2023/04/19 10:38:36;;;;;;;;;;;20.70;51.40;;;;;;5007606;28;20116;-70
2023/04/19 10:41:03;;;;;;;5.80;2.58;;;20.70;51.40;;;;;;5006121;28;19909;-70
2023/04/19 10:43:33;;;;;;;7.50;2.85;;;20.70;51.70;;;;;;5006128;28;20030;-71
2023/04/19 10:46:20;;;;;;;8.95;2.50;;;20.70;51.80;;;;;;4988833;28;20030;-70
2023/04/19 10:48:59;;;;;;;13.73;2.60;;;20.70;52.50;;;;;;5007122;28;20038;-70
2023/04/19 10:51:43;;;;;;;14.45;3.15;;;20.70;52.10;;;;;;4988915;28;20518;-71
2023/04/19 10:54:44;;;;;;;10.75;2.40;;;20.70;52.10;;;;;;5002316;28;20041;-72
2023/04/19 10:57:10;;;;;;;13.27;2.97;;;20.80;52.30;;;;;;4929551;28;20046;-72
2023/04/19 10:59:41;;;;;;;5.90;2.63;;;20.80;52.30;;;;;;4971541;28;20109;-72
2023/04/19 11:02:23;;;;;;;8.88;2.90;;;20.80;53.30;;;;;;4989020;28;20018;-72
2023/04/19 11:04:49;;;;;;;8.35;2.72;;;20.80;53.90;;;;;;4988706;28;20108;-71
2023/04/19 11:07:17;;;;;;;12.45;3.03;;;20.80;54.20;;;;;;4989041;28;20038;-71
2023/04/19 11:09:47;;;;;;;8.90;3.42;;;20.90;54.90;;;;;;4955856;28;20448;-71
2023/04/19 11:12:17;;;;;;;9.30;2.88;;;20.90;55.50;;;;;;4971468;28;20037;-70
2023/04/19 11:14:46;;;;;;;13.68;3.38;;;20.90;55.80;;;;;;4972799;28;20066;-72
2023/04/19 11:17:24;;;;;;;14.23;3.53;;;20.90;55.80;;;;;;4991243;28;20049;-71
2023/04/19 11:19:59;;;;;;;16.65;3.42;;;21.00;56.10;;;;;;4990899;28;20297;-71
2023/04/19 11:22:39;;;;;;;18.48;3.10;;;21.00;54.70;;;;;;4974320;28;20515;-71
2023/04/19 11:25:10;;;;;;;16.00;3.42;;;21.00;55.50;;;;;;5007944;28;20132;-71
2023/04/19 11:27:37;;;;;;;9.48;3.25;;;21.00;55.90;;;;;;4990628;28;20037;-71
2023/04/19 11:30:08;;;;;;;17.23;2.92;;;21.00;56.90;;;;;;4975198;28;20038;-70
2023/04/19 11:32:35;;;;;;;11.07;3.05;;;20.90;56.20;;;;;;5007983;28;20072;-70
2023/04/19 11:35:06;;;;;;;12.32;2.50;;;21.00;56.60;;;;;;4990298;28;20034;-70
2023/04/19 11:37:33;;;;;;;9.13;2.50;;;20.90;55.40;;;;;;4990205;28;20029;-70
2023/04/19 11:39:59;;;;;;;14.70;2.90;;;20.90;55.50;;;;;;4990524;28;20132;-70
2023/04/19 11:42:25;;;;;;;12.50;2.90;;;20.90;55.30;;;;;;5007830;28;20117;-72
2023/04/19 11:44:51;;;;;;;9.15;2.95;;;20.90;54.60;;;;;;4990547;28;20040;-71
2023/04/19 11:47:19;;;;;;;14.20;2.92;;;20.90;54.70;;;;;;5007935;28;20034;-72
2023/04/19 11:49:45;;;;;;;14.63;2.88;;;20.90;55.00;;;;;;4990182;28;20084;-71
2023/04/19 11:52:11;;;;;;;8.90;2.88;;;20.80;55.20;;;;;;4973631;28;20046;-71
2023/04/19 11:54:37;;;;;;;8.85;3.28;;;20.90;55.30;;;;;;4991024;28;20116;-71
2023/04/19 11:57:04;;;;;;;15.85;3.30;;;20.90;55.70;;;;;;5012600;28;20021;-71
2023/04/19 11:59:32;;;;;;;13.68;3.50;;;20.90;55.60;;;;;;5012062;28;20033;-71
2023/04/19 12:02:09;;;;;;;13.90;3.10;;;20.90;55.10;;;;;;5011819;28;20105;-71
2023/04/19 12:04:35;;;;;;;10.10;3.00;;;20.90;56.00;;;;;;5008768;28;20034;-71
2023/04/19 12:07:03;;;;;;;18.02;3.75;;;20.90;56.20;;;;;;5011934;28;20030;-71
2023/04/19 12:09:29;;;;;;;18.48;4.45;;;20.90;56.10;;;;;;5011739;28;20022;-71
2023/04/19 12:11:57;;;;;;;25.88;5.72;;;20.90;56.30;;;;;;4994375;28;20065;-70
2023/04/19 12:14:25;;;;;;;15.75;4.50;;;21.00;57.40;;;;;;5010931;28;20496;-71
2023/04/19 12:17:11;;;;;;;23.27;4.82;;;21.00;55.80;;;;;;4993118;28;20100;-71
2023/04/19 12:19:42;;;;;;;23.58;4.95;;;21.00;56.30;;;;;;4978153;28;20030;-71
2023/04/19 12:22:12;;;;;;;11.98;3.65;;;20.90;55.50;;;;;;4977678;28;20045;-71
2023/04/19 12:24:39;;;;;;;19.65;4.60;;;20.90;53.60;;;;;;4993643;28;20137;-71
2023/04/19 12:27:06;;;;;;;13.75;4.05;;;20.90;54.60;;;;;;5011365;28;20030;-71
2023/04/19 12:29:32;;;;;;;21.98;6.03;;;20.90;53.70;;;;;;5011331;28;20139;-71
2023/04/19 12:31:59;;;;;;;19.27;5.30;;;20.90;56.30;;;;;;4993691;28;20106;-71
2023/04/19 12:34:25;;;;;;;26.08;6.80;;;20.90;55.20;;;;;;4993361;28;20040;-71
2023/04/19 12:36:50;;;;;;;23.00;5.95;;;20.90;56.30;;;;;;5011534;28;20034;-72
2023/04/19 12:39:16;;;;;;;18.67;5.95;;;20.90;56.00;;;;;;4993737;28;20598;-71
2023/04/19 12:41:42;;;;;;;18.70;5.22;;;20.90;54.90;;;;;;4993466;28;20030;-70
2023/04/19 12:44:08;;;;;;;22.85;5.90;;;20.90;55.00;;;;;;5011243;28;20088;-70
2023/04/19 12:46:34;;;;;;;17.58;5.35;;;20.90;55.10;;;;;;5011005;28;20061;-70
2023/04/19 12:48:59;;;;;;;22.25;5.88;;;20.90;55.20;;;;;;4993328;28;20025;-71